createdAt,value
2018-09-20T00:01:12.391Z,75.47
2018-09-20T00:03:41.130Z,75.53
2018-09-20T00:06:09.815Z,75.51
2018-09-20T00:08:38.667Z,75.46
2018-09-20T00:11:07.545Z,75.30
2018-09-20T00:13:36.283Z,75.56
2018-09-20T00:16:05.242Z,75.73
2018-09-20T00:18:34.122Z,75.95
2018-09-20T00:21:02.960Z,75.87
2018-09-20T00:23:31.740Z,76.05
2018-09-20T00:26:00.560Z,76.21
2018-09-20T00:28:29.442Z,76.22
2018-09-20T00:30:58.643Z,76.45
2018-09-20T00:33:27.336Z,76.54
2018-09-20T00:35:56.093Z,76.07
2018-09-20T00:38:24.790Z,76.48
2018-09-20T00:40:54.514Z,76.51
2018-09-20T00:43:23.411Z,76.44
2018-09-20T00:45:52.151Z,76.77
2018-09-20T00:48:20.855Z,76.78
2018-09-20T00:50:49.548Z,76.89
2018-09-20T00:53:18.333Z,76.93
2018-09-20T00:55:47.027Z,76.66
2018-09-20T00:58:15.756Z,76.97
2018-09-20T01:00:44.475Z,76.71
2018-09-20T01:03:13.198Z,76.79
2018-09-20T01:05:41.876Z,76.73
2018-09-20T01:08:10.692Z,76.78
2018-09-20T01:10:39.636Z,76.46
2018-09-20T01:13:08.334Z,76.53
2018-09-20T01:15:37.366Z,76.42
2018-09-20T01:18:06.545Z,76.63
2018-09-20T01:20:35.367Z,76.27
2018-09-20T01:23:04.113Z,76.32
2018-09-20T01:25:33.091Z,76.23
2018-09-20T01:28:01.762Z,76.65
2018-09-20T01:30:30.771Z,76.26
2018-09-20T01:33:00.040Z,76.49
2018-09-20T01:35:28.774Z,76.57
2018-09-20T01:37:57.462Z,76.40
2018-09-20T01:40:26.153Z,76.50
2018-09-20T01:42:54.787Z,76.44
2018-09-20T01:45:23.762Z,76.47
2018-09-20T01:47:52.378Z,76.51
2018-09-20T01:50:21.091Z,76.80
2018-09-20T01:52:49.810Z,76.66
2018-09-20T01:55:18.578Z,76.83
2018-09-20T01:57:47.493Z,76.77
2018-09-20T02:00:16.145Z,76.91
2018-09-20T02:02:44.851Z,76.97
2018-09-20T02:05:13.699Z,76.66
2018-09-20T02:07:42.458Z,76.77
2018-09-20T02:10:11.141Z,76.95
2018-09-20T02:12:39.887Z,76.51
2018-09-20T02:15:08.763Z,76.69
2018-09-20T02:17:37.582Z,76.66
2018-09-20T02:20:06.593Z,76.88
2018-09-20T02:22:35.604Z,77.31
2018-09-20T02:25:04.293Z,76.76
2018-09-20T02:27:33.070Z,77.17
2018-09-20T02:30:02.165Z,77.17
2018-09-20T02:32:30.815Z,77.43
2018-09-20T02:34:59.604Z,77.20
2018-09-20T02:37:28.277Z,77.28
2018-09-20T02:39:57.032Z,77.10
2018-09-20T02:42:25.814Z,77.72
2018-09-20T02:44:54.530Z,77.46
2018-09-20T02:47:23.378Z,77.10
2018-09-20T02:49:52.066Z,77.16
2018-09-20T02:52:20.868Z,77.28
2018-09-20T02:54:49.590Z,77.48
2018-09-20T02:57:18.279Z,77.57
2018-09-20T02:59:47.107Z,77.60
2018-09-20T03:02:15.791Z,77.53
2018-09-20T03:04:44.474Z,77.60
2018-09-20T03:07:13.166Z,77.51
2018-09-20T03:09:41.822Z,77.32
2018-09-20T03:12:10.767Z,77.74
2018-09-20T03:14:39.511Z,78.00
2018-09-20T03:17:08.302Z,77.49
2018-09-20T03:19:37.129Z,77.56
2018-09-20T03:22:05.923Z,77.62
2018-09-20T03:24:35.010Z,77.65
2018-09-20T03:27:03.949Z,77.90
2018-09-20T03:29:33.003Z,78.47
2018-09-20T03:32:01.922Z,78.47
2018-09-20T03:34:30.614Z,79.33
2018-09-20T03:36:59.297Z,79.44
2018-09-20T03:39:28.110Z,79.54
2018-09-20T03:41:56.799Z,79.36
2018-09-20T03:44:25.499Z,79.48
2018-09-20T03:46:54.152Z,79.69
2018-09-20T03:49:22.979Z,79.84
2018-09-20T03:51:51.796Z,79.81
2018-09-20T03:54:20.477Z,79.85
2018-09-20T03:56:49.295Z,79.60
2018-09-20T03:59:18.099Z,79.67
2018-09-20T04:01:46.854Z,79.67
2018-09-20T04:04:15.653Z,79.94
2018-09-20T04:06:44.374Z,80.00
2018-09-20T04:09:13.299Z,79.90
2018-09-20T04:11:42.126Z,79.25
2018-09-20T04:14:10.870Z,79.63
2018-09-20T04:16:39.558Z,79.48
2018-09-20T04:19:08.211Z,79.24
2018-09-20T04:21:37.074Z,79.07
2018-09-20T04:24:06.983Z,79.26
2018-09-20T04:26:35.816Z,79.31
2018-09-20T04:29:04.650Z,79.35
2018-09-20T04:31:33.696Z,79.15
2018-09-20T04:34:02.834Z,79.20
2018-09-20T04:36:32.033Z,78.72
2018-09-20T04:39:01.148Z,78.84
2018-09-20T04:41:29.866Z,78.78
2018-09-20T04:43:58.533Z,78.84
2018-09-20T04:46:27.289Z,78.55
2018-09-20T04:48:56.065Z,78.54
2018-09-20T04:51:24.773Z,78.40
2018-09-20T04:53:53.542Z,79.01
2018-09-20T04:56:22.445Z,78.98
2018-09-20T04:58:51.117Z,79.57
2018-09-20T05:01:19.876Z,79.53
2018-09-20T05:03:49.037Z,79.61
2018-09-20T05:06:17.809Z,79.61
2018-09-20T05:08:46.644Z,79.51
2018-09-20T05:11:15.719Z,79.88
2018-09-20T05:13:44.473Z,80.07
2018-09-20T05:16:13.216Z,79.87
2018-09-20T05:18:41.968Z,80.01
2018-09-20T05:21:10.674Z,80.21
2018-09-20T05:23:39.382Z,79.88
2018-09-20T05:26:08.254Z,79.92
2018-09-20T05:28:37.030Z,79.91
2018-09-20T05:31:05.914Z,80.01
2018-09-20T05:33:34.666Z,79.48
2018-09-20T05:36:03.499Z,79.60
2018-09-20T05:38:32.181Z,79.55
2018-09-20T05:41:00.864Z,79.23
2018-09-20T05:43:29.605Z,79.38
2018-09-20T05:45:58.298Z,79.09
2018-09-20T05:48:27.098Z,79.05
2018-09-20T05:50:56.011Z,79.04
2018-09-20T05:53:24.690Z,79.45
2018-09-20T05:55:53.399Z,78.92
2018-09-20T05:58:22.278Z,78.81
2018-09-20T06:00:51.083Z,79.09
2018-09-20T06:03:19.850Z,78.99
2018-09-20T06:05:48.686Z,78.48
2018-09-20T06:08:17.552Z,78.78
2018-09-20T06:10:46.211Z,78.46
2018-09-20T06:13:15.085Z,78.01
2018-09-20T06:15:43.738Z,77.87
2018-09-20T06:18:12.435Z,77.66
2018-09-20T06:20:41.192Z,76.74
2018-09-20T06:23:09.961Z,76.54
2018-09-20T06:25:39.018Z,76.20
2018-09-20T06:28:07.689Z,76.26
2018-09-20T06:30:36.435Z,75.49
2018-09-20T06:33:05.278Z,75.19
2018-09-20T06:35:34.407Z,74.76
2018-09-20T06:38:03.439Z,74.34
2018-09-20T06:40:32.293Z,74.00
2018-09-20T06:43:01.044Z,73.90
2018-09-20T06:45:29.878Z,72.96
2018-09-20T06:47:58.543Z,71.37
2018-09-20T06:50:27.635Z,71.06
2018-09-20T06:52:56.545Z,71.07
2018-09-20T06:55:25.467Z,70.29
2018-09-20T06:57:54.289Z,69.79
2018-09-20T07:00:23.183Z,70.76
2018-09-20T07:02:52.027Z,70.01
2018-09-20T07:05:20.744Z,70.25
2018-09-20T07:07:49.638Z,68.95
2018-09-20T07:10:18.505Z,69.39
2018-09-20T07:12:47.193Z,69.39
2018-09-20T07:15:15.876Z,68.33
2018-09-20T07:17:44.715Z,67.68
2018-09-20T07:20:13.580Z,68.24
2018-09-20T07:22:42.303Z,67.46
2018-09-20T07:25:11.171Z,66.78
2018-09-20T07:27:40.585Z,67.06
2018-09-20T07:30:09.328Z,66.72
2018-09-20T07:32:38.352Z,66.73
2018-09-20T07:35:07.633Z,66.05
2018-09-20T07:37:36.382Z,65.84
2018-09-20T07:40:05.518Z,65.32
2018-09-20T07:42:34.188Z,65.07
2018-09-20T07:45:02.927Z,65.27
2018-09-20T07:47:31.650Z,64.99
2018-09-20T07:50:00.447Z,64.69
2018-09-20T07:52:29.392Z,64.04
2018-09-20T07:54:58.119Z,64.04
2018-09-20T07:57:29.583Z,64.00
2018-09-20T08:00:00.529Z,63.96
2018-09-20T08:02:29.454Z,63.91
2018-09-20T08:04:58.442Z,63.78
2018-09-20T08:07:27.281Z,62.62
2018-09-20T08:09:56.112Z,62.49
2018-09-20T08:12:24.773Z,62.55
2018-09-20T08:14:53.698Z,61.99
2018-09-20T08:17:22.564Z,61.44
2018-09-20T08:19:51.244Z,61.58
2018-09-20T08:22:20.376Z,61.53
2018-09-20T08:24:49.271Z,61.24
2018-09-20T08:27:18.056Z,61.14
2018-09-20T08:29:46.862Z,60.71
2018-09-20T08:32:15.690Z,60.57
2018-09-20T08:34:44.378Z,60.50
2018-09-20T08:37:13.352Z,59.75
2018-09-20T08:39:41.993Z,59.05
2018-09-20T08:42:10.780Z,59.06
2018-09-20T08:44:39.506Z,58.71
2018-09-20T08:47:08.241Z,58.67
2018-09-20T08:49:37.060Z,58.10
2018-09-20T08:52:05.845Z,57.55
2018-09-20T08:54:34.723Z,57.35
2018-09-20T08:57:03.773Z,57.22
2018-09-20T08:59:32.406Z,57.22
2018-09-20T09:02:01.338Z,56.42
2018-09-20T09:04:30.325Z,56.22
2018-09-20T09:06:59.058Z,56.19
2018-09-20T09:09:28.065Z,55.97
2018-09-20T09:11:56.879Z,55.72
2018-09-20T09:14:25.697Z,56.16
2018-09-20T09:16:54.498Z,55.56
2018-09-20T09:19:23.194Z,55.51
2018-09-20T09:21:51.943Z,54.42
2018-09-20T09:24:20.700Z,54.70
2018-09-20T09:26:49.458Z,54.90
2018-09-20T09:29:18.314Z,54.44
2018-09-20T09:31:46.989Z,54.07
2018-09-20T09:34:16.216Z,53.64
2018-09-20T09:36:44.879Z,54.24
2018-09-20T09:39:14.352Z,53.50
2018-09-20T09:41:43.895Z,52.85
2018-09-20T09:44:13.533Z,52.66
2018-09-20T09:46:42.492Z,52.00
2018-09-20T09:49:11.178Z,51.70
2018-09-20T09:51:40.147Z,50.76
2018-09-20T09:54:09.043Z,50.45
2018-09-20T09:56:37.744Z,51.02
2018-09-20T09:59:06.701Z,50.95
2018-09-20T10:01:35.431Z,50.95
2018-09-20T10:04:04.390Z,50.99
2018-09-20T10:06:33.322Z,50.25
2018-09-20T10:09:02.076Z,49.97
2018-09-20T10:11:30.760Z,50.97
2018-09-20T10:13:59.538Z,50.29
2018-09-20T10:16:28.257Z,50.00
2018-09-20T10:18:56.953Z,49.30
2018-09-20T10:21:25.902Z,49.63
2018-09-20T10:23:54.949Z,50.03
2018-09-20T10:26:23.774Z,49.42
2018-09-20T10:28:52.478Z,49.61
2018-09-20T10:31:21.277Z,49.47
2018-09-20T10:33:50.231Z,48.79
2018-09-20T10:36:19.095Z,48.65
2018-09-20T10:38:47.842Z,48.63
2018-09-20T10:41:16.539Z,48.56
2018-09-20T10:43:45.242Z,47.98
2018-09-20T10:46:13.991Z,48.31
2018-09-20T10:48:42.770Z,47.89
2018-09-20T10:51:11.536Z,48.60
2018-09-20T10:53:40.402Z,48.20
2018-09-20T10:56:09.193Z,49.31
2018-09-20T10:58:37.933Z,48.50
2018-09-20T11:01:06.759Z,47.63
2018-09-20T11:03:35.563Z,47.48
2018-09-20T11:06:04.412Z,48.06
2018-09-20T11:08:33.329Z,47.97
2018-09-20T11:11:02.432Z,47.33
2018-09-20T11:13:31.231Z,47.71
2018-09-20T11:16:00.230Z,46.32
2018-09-20T11:18:29.103Z,46.22
2018-09-20T11:20:57.763Z,47.06
2018-09-20T11:23:26.556Z,46.29
2018-09-20T11:25:55.767Z,46.61
2018-09-20T11:28:24.690Z,45.72
2018-09-20T11:30:53.653Z,45.00
2018-09-20T11:33:22.445Z,45.46
2018-09-20T11:35:51.265Z,45.05
2018-09-20T11:38:20.042Z,44.39
2018-09-20T11:40:48.813Z,43.35
2018-09-20T11:43:17.553Z,43.49
2018-09-20T11:45:46.391Z,43.39
2018-09-20T11:48:15.106Z,42.69
2018-09-20T11:50:43.872Z,41.82
2018-09-20T11:53:12.695Z,41.77
2018-09-20T11:55:41.394Z,40.79
2018-09-20T11:58:10.526Z,40.48
2018-09-20T12:00:39.205Z,39.34
2018-09-20T12:03:07.946Z,39.14
2018-09-20T12:05:36.738Z,38.70
2018-09-20T12:08:05.504Z,37.74
2018-09-20T12:10:34.298Z,36.21
2018-09-20T12:13:03.033Z,35.85
2018-09-20T12:15:31.691Z,35.21
2018-09-20T12:18:00.368Z,33.79
2018-09-20T12:20:59.401Z,33.12
2018-09-20T12:23:28.150Z,33.90
2018-09-20T12:25:57.057Z,35.00
2018-09-20T12:28:25.915Z,35.27
2018-09-20T12:30:54.719Z,34.23
2018-09-20T12:33:23.390Z,34.80
2018-09-20T12:35:52.676Z,33.03
2018-09-20T12:38:21.418Z,34.12
2018-09-20T12:40:50.067Z,32.93
2018-09-20T12:43:18.874Z,32.81
2018-09-20T12:45:47.629Z,31.83
2018-09-20T12:48:16.417Z,30.22
2018-09-20T12:50:45.149Z,29.59
2018-09-20T12:53:14.017Z,29.40
2018-09-20T12:55:43.028Z,28.37
2018-09-20T12:58:11.718Z,27.87
2018-09-20T13:00:40.734Z,29.63
2018-09-20T13:03:09.478Z,27.88
2018-09-20T13:05:38.297Z,28.09
2018-09-20T13:08:07.287Z,28.11
2018-09-20T13:10:35.950Z,27.74
2018-09-20T13:13:04.872Z,25.13
2018-09-20T13:15:33.634Z,24.71
2018-09-20T13:18:02.331Z,25.31
2018-09-20T13:20:31.558Z,26.03
2018-09-20T13:23:00.285Z,26.17
2018-09-20T13:25:29.010Z,24.80
2018-09-20T13:27:57.707Z,24.96
2018-09-20T13:30:26.391Z,24.49
2018-09-20T13:32:55.276Z,24.10
2018-09-20T13:35:24.146Z,24.70
2018-09-20T13:37:52.938Z,24.03
2018-09-20T13:40:21.646Z,24.51
2018-09-20T13:42:50.518Z,24.84
2018-09-20T13:45:19.276Z,24.23
2018-09-20T13:47:47.958Z,24.66
2018-09-20T13:50:16.697Z,25.24
2018-09-20T13:52:45.644Z,23.92
2018-09-20T13:55:14.694Z,24.13
2018-09-20T13:57:43.421Z,25.14
2018-09-20T14:00:12.168Z,26.29
2018-09-20T14:02:41.023Z,27.40
2018-09-20T14:05:09.849Z,27.77
2018-09-20T14:07:38.787Z,27.75
2018-09-20T14:10:07.722Z,28.91
2018-09-20T14:12:37.152Z,30.23
2018-09-20T14:15:06.331Z,30.94
2018-09-20T14:17:36.319Z,31.94
2018-09-20T14:20:05.175Z,32.38
2018-09-20T14:22:34.436Z,33.04
2018-09-20T14:25:03.766Z,34.43
2018-09-20T14:27:32.566Z,33.87
2018-09-20T14:30:01.379Z,34.74
2018-09-20T14:32:30.042Z,35.41
2018-09-20T14:34:58.790Z,35.39
2018-09-20T14:37:27.663Z,35.85
2018-09-20T14:39:56.486Z,36.12
2018-09-20T14:42:25.271Z,36.32
2018-09-20T14:44:54.084Z,36.97
2018-09-20T14:47:22.774Z,37.67
2018-09-20T14:49:51.531Z,36.87
2018-09-20T14:52:20.934Z,36.91
2018-09-20T14:54:49.695Z,37.49
2018-09-20T14:57:18.379Z,37.37
2018-09-20T14:59:47.311Z,37.40
2018-09-20T15:02:16.092Z,37.28
2018-09-20T15:04:44.762Z,37.70
2018-09-20T15:07:14.298Z,38.20
2018-09-20T15:09:43.035Z,39.07
2018-09-20T15:12:11.989Z,38.21
2018-09-20T15:14:40.727Z,38.47
2018-09-20T15:17:09.503Z,38.85
2018-09-20T15:19:38.902Z,39.42
2018-09-20T15:22:08.022Z,39.54
2018-09-20T15:24:37.023Z,39.23
2018-09-20T15:27:05.679Z,39.11
2018-09-20T15:29:34.634Z,39.44
2018-09-20T15:32:03.585Z,39.53
2018-09-20T15:34:32.372Z,39.10
2018-09-20T15:37:01.407Z,38.87
2018-09-20T15:39:30.157Z,39.01
2018-09-20T15:41:58.822Z,39.98
2018-09-20T15:44:27.550Z,39.89
2018-09-20T15:46:56.414Z,39.85
2018-09-20T15:49:25.250Z,39.99
2018-09-20T15:51:53.998Z,40.04
2018-09-20T15:54:22.673Z,40.10
2018-09-20T15:56:51.502Z,40.46
2018-09-20T15:59:21.331Z,40.71
2018-09-20T16:01:50.424Z,40.09
2018-09-20T16:04:19.183Z,39.53
2018-09-20T16:06:47.897Z,40.33
2018-09-20T16:09:16.613Z,39.89
2018-09-20T16:11:45.450Z,40.31
2018-09-20T16:14:14.356Z,39.98
2018-09-20T16:16:43.007Z,40.33
2018-09-20T16:19:11.909Z,40.14
2018-09-20T16:21:40.607Z,40.35
2018-09-20T16:24:09.421Z,40.64
2018-09-20T16:26:38.126Z,40.97
2018-09-20T16:29:24.750Z,41.73
2018-09-20T16:34:11.909Z,41.45
2018-09-20T16:36:58.757Z,41.99
2018-09-20T16:39:29.839Z,41.71
2018-09-20T16:42:04.738Z,42.37
2018-09-20T16:44:33.498Z,43.14
2018-09-20T16:47:02.375Z,43.06
2018-09-20T16:49:31.131Z,42.91
2018-09-20T16:51:59.790Z,43.37
2018-09-20T16:54:28.582Z,43.79
2018-09-20T16:56:57.405Z,43.96
2018-09-20T16:59:26.179Z,44.65
2018-09-20T17:01:54.937Z,44.89
2018-09-20T17:04:23.614Z,45.44
2018-09-20T17:06:52.310Z,45.17
2018-09-20T17:09:21.087Z,45.62
2018-09-20T17:11:49.765Z,46.48
2018-09-20T17:14:18.491Z,46.36
2018-09-20T17:16:47.302Z,46.28
2018-09-20T17:19:15.969Z,46.95
2018-09-20T17:21:44.641Z,46.32
2018-09-20T17:24:13.395Z,47.16
2018-09-20T17:26:42.111Z,47.62
2018-09-20T17:29:10.879Z,46.73
2018-09-20T17:31:39.813Z,47.23
2018-09-20T17:34:08.840Z,47.10
2018-09-20T17:36:38.368Z,47.04
2018-09-20T17:39:11.515Z,47.02
2018-09-20T17:41:42.623Z,47.21
2018-09-20T17:44:14.564Z,47.68
2018-09-20T17:46:43.670Z,47.90
2018-09-20T17:49:12.587Z,48.14
2018-09-20T17:51:43.016Z,48.72
2018-09-20T17:54:12.983Z,48.37
2018-09-20T17:56:42.439Z,48.80
2018-09-20T17:59:11.167Z,48.77
2018-09-20T18:01:39.854Z,48.79
2018-09-20T18:04:08.570Z,48.83
2018-09-20T18:06:37.402Z,49.28
2018-09-20T18:09:09.345Z,49.10
2018-09-20T18:11:38.455Z,49.04
2018-09-20T18:14:07.331Z,48.99
2018-09-20T18:16:36.125Z,49.59
2018-09-20T18:19:05.086Z,49.68
2018-09-20T18:21:34.360Z,50.09
2018-09-20T18:24:03.111Z,49.61
2018-09-20T18:26:31.858Z,49.87
2018-09-20T18:29:00.603Z,49.51
2018-09-20T18:31:29.360Z,49.87
2018-09-20T18:33:58.106Z,50.35
2018-09-20T18:36:26.929Z,50.07
2018-09-20T18:38:55.786Z,50.85
2018-09-20T18:41:24.590Z,50.27
2018-09-20T18:43:53.455Z,50.72
2018-09-20T18:46:22.233Z,51.27
2018-09-20T18:48:51.034Z,50.80
2018-09-20T18:51:19.730Z,51.78
2018-09-20T18:53:48.450Z,50.40
2018-09-20T18:56:17.161Z,50.65
2018-09-20T18:58:45.826Z,50.31
2018-09-20T19:01:14.907Z,50.21
2018-09-20T19:03:43.603Z,50.53
2018-09-20T19:06:12.336Z,51.54
2018-09-20T19:08:41.054Z,51.56
2018-09-20T19:11:09.797Z,51.17
2018-09-20T19:13:38.652Z,51.82
2018-09-20T19:16:07.438Z,51.60
2018-09-20T19:18:36.077Z,51.67
2018-09-20T19:21:05.005Z,51.53
2018-09-20T19:23:33.910Z,51.78
2018-09-20T19:26:02.698Z,51.67
2018-09-20T19:28:31.525Z,51.92
2018-09-20T19:31:00.510Z,52.10
2018-09-20T19:33:29.314Z,52.34
2018-09-20T19:35:58.098Z,52.88
2018-09-20T19:38:26.994Z,52.37
2018-09-20T19:40:55.691Z,53.08
2018-09-20T19:43:24.556Z,53.10
2018-09-20T19:45:53.315Z,53.24
2018-09-20T19:48:22.041Z,53.63
2018-09-20T19:50:50.864Z,53.77
2018-09-20T19:53:19.535Z,54.00
2018-09-20T19:55:48.283Z,54.32
2018-09-20T19:58:17.049Z,54.38
2018-09-20T20:00:45.874Z,54.31
2018-09-20T20:03:14.934Z,54.31
2018-09-20T20:05:43.760Z,54.48
2018-09-20T20:08:12.860Z,54.87
2018-09-20T20:10:41.609Z,54.68
2018-09-20T20:13:10.309Z,55.00
2018-09-20T20:15:39.112Z,55.11
2018-09-20T20:18:07.823Z,55.06
2018-09-20T20:20:36.578Z,55.49
2018-09-20T20:23:05.458Z,54.91
2018-09-20T20:25:34.515Z,55.06
2018-09-20T20:28:03.260Z,55.41
2018-09-20T20:30:32.048Z,55.80
2018-09-20T20:33:01.328Z,56.42
2018-09-20T20:35:30.149Z,56.27
2018-09-20T20:37:58.816Z,56.18
2018-09-20T20:40:27.523Z,56.67
2018-09-20T20:42:56.199Z,56.90
2018-09-20T20:45:25.135Z,57.02
2018-09-20T20:47:53.852Z,56.72
2018-09-20T20:50:22.558Z,57.13
2018-09-20T20:52:51.272Z,56.98
2018-09-20T20:55:20.174Z,57.13
2018-09-20T20:57:49.165Z,57.63
2018-09-20T21:00:18.031Z,57.87
2018-09-20T21:02:46.795Z,57.84
2018-09-20T21:05:15.544Z,58.20
2018-09-20T21:07:44.198Z,58.11
2018-09-20T21:10:13.338Z,58.22
2018-09-20T21:12:42.398Z,58.63
2018-09-20T21:15:11.245Z,58.41
2018-09-20T21:17:40.225Z,58.41
2018-09-20T21:20:08.985Z,58.49
2018-09-20T21:22:37.676Z,58.37
2018-09-20T21:25:06.516Z,58.75
2018-09-20T21:27:35.254Z,58.82
2018-09-20T21:30:04.250Z,59.10
2018-09-20T21:32:33.160Z,59.49
2018-09-20T21:35:01.903Z,59.57
2018-09-20T21:37:31.045Z,59.43
2018-09-20T21:39:59.906Z,59.26
2018-09-20T21:42:29.333Z,59.64
2018-09-20T21:44:58.117Z,59.72
2018-09-20T21:47:26.954Z,60.08
2018-09-20T21:49:55.804Z,59.79
2018-09-20T21:52:25.480Z,60.01
2018-09-20T21:54:54.162Z,60.13
2018-09-20T21:57:22.951Z,60.16
2018-09-20T21:59:51.751Z,60.06
2018-09-20T22:02:25.790Z,60.62
2018-09-20T22:04:54.430Z,60.66
2018-09-20T22:07:23.142Z,60.74
2018-09-20T22:09:51.791Z,61.01
2018-09-20T22:12:20.512Z,60.88
2018-09-20T22:14:49.235Z,61.20
2018-09-20T22:17:17.988Z,61.09
2018-09-20T22:19:47.183Z,61.05
2018-09-20T22:22:15.815Z,61.17
2018-09-20T22:24:44.458Z,61.57
2018-09-20T22:27:13.294Z,61.46
2018-09-20T22:29:41.942Z,61.66
2018-09-20T22:32:10.577Z,61.62
2018-09-20T22:34:39.846Z,61.61
2018-09-20T22:37:08.510Z,61.57
2018-09-20T22:39:37.325Z,61.83
2018-09-20T22:42:06.115Z,61.61
2018-09-20T22:44:34.751Z,61.85
2018-09-20T22:47:03.475Z,61.64
2018-09-20T22:49:32.169Z,62.31
2018-09-20T22:52:00.862Z,62.24
2018-09-20T22:54:29.602Z,62.50
2018-09-20T22:56:58.284Z,62.46
2018-09-20T22:59:27.002Z,62.57
2018-09-20T23:01:55.773Z,62.95
2018-09-20T23:04:24.442Z,63.25
2018-09-20T23:06:53.162Z,63.13
2018-09-20T23:09:21.976Z,63.06
2018-09-20T23:11:50.730Z,62.97
2018-09-20T23:14:19.578Z,62.95
2018-09-20T23:16:48.339Z,62.83
2018-09-20T23:19:16.989Z,63.01
2018-09-20T23:21:45.673Z,63.23
2018-09-20T23:24:14.388Z,63.29
2018-09-20T23:26:43.014Z,63.54
2018-09-20T23:29:13.186Z,63.74
2018-09-20T23:31:41.893Z,63.53
2018-09-20T23:34:10.866Z,63.59
2018-09-20T23:36:40.610Z,63.85
2018-09-20T23:39:12.495Z,63.91
2018-09-20T23:41:41.790Z,64.30
2018-09-20T23:44:10.454Z,64.31
2018-09-20T23:46:39.741Z,64.37
2018-09-20T23:49:08.623Z,64.43
2018-09-20T23:51:37.285Z,64.54
2018-09-20T23:54:06.317Z,64.59
2018-09-20T23:56:35.127Z,65.27
2018-09-20T23:59:03.870Z,65.31
